sensor_id;sensor_type;location;lat;lon;timestamp;temperature;humidity
563;DHT22;266;49.514;8.294;2023-03-01T00:00:01;-0.40;99.90
563;DHT22;266;49.514;8.294;2023-03-01T00:02:31;-0.40;99.90
563;DHT22;266;49.514;8.294;2023-03-01T00:04:58;-0.40;99.90
563;DHT22;266;49.514;8.294;2023-03-01T00:07:26;-0.50;99.90
563;DHT22;266;49.514;8.294;2023-03-01T00:09:54;-0.40;99.90
563;DHT22;266;49.514;8.294;2023-03-01T00:12:22;-0.50;99.90
563;DHT22;266;49.514;8.294;2023-03-01T00:14:51;-0.50;99.90
563;DHT22;266;49.514;8.294;2023-03-01T00:17:19;-0.50;99.90
563;DHT22;266;49.514;8.294;2023-03-01T00:19:47;-0.60;99.90
563;DHT22;266;49.514;8.294;2023-03-01T00:22:15;-0.60;99.90
563;DHT22;266;49.514;8.294;2023-03-01T00:24:43;-0.60;99.90
563;DHT22;266;49.514;8.294;2023-03-01T00:27:11;-0.70;99.90
563;DHT22;266;49.514;8.294;2023-03-01T00:29:39;-0.70;99.90
563;DHT22;266;49.514;8.294;2023-03-01T00:32:08;-0.80;99.90
563;DHT22;266;49.514;8.294;2023-03-01T00:34:36;-0.80;99.90
563;DHT22;266;49.514;8.294;2023-03-01T00:37:04;-0.80;99.90
563;DHT22;266;49.514;8.294;2023-03-01T00:39:32;-0.90;99.90
563;DHT22;266;49.514;8.294;2023-03-01T00:42:00;-0.90;99.90
563;DHT22;266;49.514;8.294;2023-03-01T00:44:28;-0.90;99.90
563;DHT22;266;49.514;8.294;2023-03-01T00:46:56;-0.90;99.90
563;DHT22;266;49.514;8.294;2023-03-01T00:49:25;-0.90;99.90
563;DHT22;266;49.514;8.294;2023-03-01T00:51:54;-0.90;99.90
563;DHT22;266;49.514;8.294;2023-03-01T00:54:22;-0.90;99.90
563;DHT22;266;49.514;8.294;2023-03-01T00:56:50;-0.90;99.90
563;DHT22;266;49.514;8.294;2023-03-01T00:59:18;-0.90;99.90
563;DHT22;266;49.514;8.294;2023-03-01T01:01:45;-0.90;99.90
563;DHT22;266;49.514;8.294;2023-03-01T01:04:14;-0.90;99.90
563;DHT22;266;49.514;8.294;2023-03-01T01:06:44;-0.90;99.90
563;DHT22;266;49.514;8.294;2023-03-01T01:09:15;-0.80;99.90
563;DHT22;266;49.514;8.294;2023-03-01T01:11:45;-0.90;99.90
563;DHT22;266;49.514;8.294;2023-03-01T01:14:14;-0.80;99.90
563;DHT22;266;49.514;8.294;2023-03-01T01:16:42;-0.80;99.90
563;DHT22;266;49.514;8.294;2023-03-01T01:19:11;-0.80;99.90
563;DHT22;266;49.514;8.294;2023-03-01T01:21:40;-0.90;99.90
563;DHT22;266;49.514;8.294;2023-03-01T01:24:11;-0.90;99.90
563;DHT22;266;49.514;8.294;2023-03-01T01:26:39;-0.90;99.90
563;DHT22;266;49.514;8.294;2023-03-01T01:29:07;-0.90;99.90
563;DHT22;266;49.514;8.294;2023-03-01T01:31:37;-1.00;99.90
563;DHT22;266;49.514;8.294;2023-03-01T01:34:06;-1.10;99.90
563;DHT22;266;49.514;8.294;2023-03-01T01:36:34;-1.20;99.90
563;DHT22;266;49.514;8.294;2023-03-01T01:39:02;-1.20;99.90
563;DHT22;266;49.514;8.294;2023-03-01T01:41:32;-1.20;99.90
563;DHT22;266;49.514;8.294;2023-03-01T01:44:12;-1.30;99.90
563;DHT22;266;49.514;8.294;2023-03-01T01:46:42;-1.30;99.90
563;DHT22;266;49.514;8.294;2023-03-01T01:49:19;-1.40;99.90
563;DHT22;266;49.514;8.294;2023-03-01T01:51:53;-1.40;99.90
563;DHT22;266;49.514;8.294;2023-03-01T01:54:24;-1.40;99.90
563;DHT22;266;49.514;8.294;2023-03-01T01:56:56;-1.40;99.90
563;DHT22;266;49.514;8.294;2023-03-01T01:59:26;-1.50;99.90
563;DHT22;266;49.514;8.294;2023-03-01T02:01:58;-1.50;99.90
563;DHT22;266;49.514;8.294;2023-03-01T02:04:26;-1.50;99.90
563;DHT22;266;49.514;8.294;2023-03-01T02:06:59;-1.50;99.90
563;DHT22;266;49.514;8.294;2023-03-01T02:09:30;-1.50;99.90
563;DHT22;266;49.514;8.294;2023-03-01T02:12:02;-1.50;99.90
563;DHT22;266;49.514;8.294;2023-03-01T02:14:31;-1.50;99.90
563;DHT22;266;49.514;8.294;2023-03-01T02:16:58;-1.50;99.90
563;DHT22;266;49.514;8.294;2023-03-01T02:19:36;-1.50;99.90
563;DHT22;266;49.514;8.294;2023-03-01T02:22:14;-1.50;99.90
563;DHT22;266;49.514;8.294;2023-03-01T02:24:52;-1.60;99.90
563;DHT22;266;49.514;8.294;2023-03-01T02:27:30;-1.60;99.90
563;DHT22;266;49.514;8.294;2023-03-01T02:30:02;-1.60;99.90
563;DHT22;266;49.514;8.294;2023-03-01T02:32:30;-1.60;99.90
563;DHT22;266;49.514;8.294;2023-03-01T02:34:58;-1.60;99.90
563;DHT22;266;49.514;8.294;2023-03-01T02:37:26;-1.60;99.90
563;DHT22;266;49.514;8.294;2023-03-01T02:39:58;-1.60;99.90
563;DHT22;266;49.514;8.294;2023-03-01T02:42:30;-1.60;99.90
563;DHT22;266;49.514;8.294;2023-03-01T02:44:59;-1.50;99.90
563;DHT22;266;49.514;8.294;2023-03-01T02:47:28;-1.50;99.90
563;DHT22;266;49.514;8.294;2023-03-01T02:49:56;-1.50;99.90
563;DHT22;266;49.514;8.294;2023-03-01T02:52:33;-1.50;99.90
563;DHT22;266;49.514;8.294;2023-03-01T02:55:07;-1.50;99.90
563;DHT22;266;49.514;8.294;2023-03-01T02:57:38;-1.50;99.90
563;DHT22;266;49.514;8.294;2023-03-01T03:00:09;-1.40;99.90
563;DHT22;266;49.514;8.294;2023-03-01T03:02:48;-1.40;99.90
563;DHT22;266;49.514;8.294;2023-03-01T03:05:18;-1.40;99.90
563;DHT22;266;49.514;8.294;2023-03-01T03:07:48;-1.30;99.90
563;DHT22;266;49.514;8.294;2023-03-01T03:10:23;-1.30;99.90
563;DHT22;266;49.514;8.294;2023-03-01T03:12:53;-1.30;99.90
563;DHT22;266;49.514;8.294;2023-03-01T03:15:22;-1.30;99.90
563;DHT22;266;49.514;8.294;2023-03-01T03:17:53;-1.30;99.90
563;DHT22;266;49.514;8.294;2023-03-01T03:20:23;-1.40;99.90
563;DHT22;266;49.514;8.294;2023-03-01T03:22:53;-1.40;99.90
563;DHT22;266;49.514;8.294;2023-03-01T03:25:22;-1.40;99.90
563;DHT22;266;49.514;8.294;2023-03-01T03:27:51;-1.40;99.90
563;DHT22;266;49.514;8.294;2023-03-01T03:30:25;-1.40;99.90
563;DHT22;266;49.514;8.294;2023-03-01T03:32:55;-1.40;99.90
563;DHT22;266;49.514;8.294;2023-03-01T03:35:25;-1.40;99.90
563;DHT22;266;49.514;8.294;2023-03-01T03:37:56;-1.40;99.90
563;DHT22;266;49.514;8.294;2023-03-01T03:40:32;-1.40;99.90
563;DHT22;266;49.514;8.294;2023-03-01T03:43:01;-1.50;99.90
563;DHT22;266;49.514;8.294;2023-03-01T03:45:29;-1.50;99.90
563;DHT22;266;49.514;8.294;2023-03-01T03:48:02;-1.50;99.90
563;DHT22;266;49.514;8.294;2023-03-01T03:50:31;-1.50;99.90
563;DHT22;266;49.514;8.294;2023-03-01T03:53:00;-1.40;99.90
563;DHT22;266;49.514;8.294;2023-03-01T03:55:29;-1.50;99.90
563;DHT22;266;49.514;8.294;2023-03-01T03:57:58;-1.40;99.90
563;DHT22;266;49.514;8.294;2023-03-01T04:00:29;-1.50;99.90
563;DHT22;266;49.514;8.294;2023-03-01T04:02:57;-1.50;99.90
563;DHT22;266;49.514;8.294;2023-03-01T04:05:27;-1.40;99.90
563;DHT22;266;49.514;8.294;2023-03-01T04:07:55;-1.40;99.90
563;DHT22;266;49.514;8.294;2023-03-01T04:10:35;-1.40;99.90
563;DHT22;266;49.514;8.294;2023-03-01T04:13:04;-1.40;99.90
563;DHT22;266;49.514;8.294;2023-03-01T04:15:33;-1.40;99.90
563;DHT22;266;49.514;8.294;2023-03-01T04:18:02;-1.40;99.90
563;DHT22;266;49.514;8.294;2023-03-01T04:20:34;-1.40;99.90
563;DHT22;266;49.514;8.294;2023-03-01T04:23:05;-1.40;99.90
563;DHT22;266;49.514;8.294;2023-03-01T04:25:40;-1.40;99.90
563;DHT22;266;49.514;8.294;2023-03-01T04:28:09;-1.40;99.90
563;DHT22;266;49.514;8.294;2023-03-01T04:30:38;-1.40;99.90
563;DHT22;266;49.514;8.294;2023-03-01T04:33:09;-1.40;99.90
563;DHT22;266;49.514;8.294;2023-03-01T04:35:39;-1.40;99.90
563;DHT22;266;49.514;8.294;2023-03-01T04:38:07;-1.40;99.90
563;DHT22;266;49.514;8.294;2023-03-01T04:40:36;-1.50;99.90
563;DHT22;266;49.514;8.294;2023-03-01T04:43:04;-1.50;99.90
563;DHT22;266;49.514;8.294;2023-03-01T04:45:33;-1.50;99.90
563;DHT22;266;49.514;8.294;2023-03-01T04:48:03;-1.50;99.90
563;DHT22;266;49.514;8.294;2023-03-01T04:50:31;-1.50;99.90
563;DHT22;266;49.514;8.294;2023-03-01T04:53:00;-1.50;99.90
563;DHT22;266;49.514;8.294;2023-03-01T04:55:29;-1.40;99.90
563;DHT22;266;49.514;8.294;2023-03-01T04:57:58;-1.40;99.90
563;DHT22;266;49.514;8.294;2023-03-01T05:00:26;-1.40;99.90
563;DHT22;266;49.514;8.294;2023-03-01T05:02:55;-1.40;99.90
563;DHT22;266;49.514;8.294;2023-03-01T05:05:26;-1.40;99.90
563;DHT22;266;49.514;8.294;2023-03-01T05:07:56;-1.40;99.90
563;DHT22;266;49.514;8.294;2023-03-01T05:10:26;-1.40;99.90
563;DHT22;266;49.514;8.294;2023-03-01T05:12:56;-1.40;99.90
563;DHT22;266;49.514;8.294;2023-03-01T05:15:26;-1.40;99.90
563;DHT22;266;49.514;8.294;2023-03-01T05:17:55;-1.40;99.90
563;DHT22;266;49.514;8.294;2023-03-01T05:20:25;-1.30;99.90
563;DHT22;266;49.514;8.294;2023-03-01T05:22:56;-1.30;99.90
563;DHT22;266;49.514;8.294;2023-03-01T05:25:26;-1.30;99.90
563;DHT22;266;49.514;8.294;2023-03-01T05:28:00;-1.30;99.90
563;DHT22;266;49.514;8.294;2023-03-01T05:30:31;-1.20;99.90
563;DHT22;266;49.514;8.294;2023-03-01T05:33:00;-1.20;99.90
563;DHT22;266;49.514;8.294;2023-03-01T05:35:28;-1.10;99.90
563;DHT22;266;49.514;8.294;2023-03-01T05:37:59;-1.10;99.90
563;DHT22;266;49.514;8.294;2023-03-01T05:40:28;-1.10;99.90
563;DHT22;266;49.514;8.294;2023-03-01T05:42:57;-1.10;99.90
563;DHT22;266;49.514;8.294;2023-03-01T05:45:26;-1.00;99.90
563;DHT22;266;49.514;8.294;2023-03-01T05:47:54;-1.00;99.90
563;DHT22;266;49.514;8.294;2023-03-01T05:50:25;-1.00;99.90
563;DHT22;266;49.514;8.294;2023-03-01T05:52:58;-1.00;99.90
563;DHT22;266;49.514;8.294;2023-03-01T05:55:28;-1.00;99.90
563;DHT22;266;49.514;8.294;2023-03-01T05:57:58;-0.90;99.90
563;DHT22;266;49.514;8.294;2023-03-01T06:00:26;-0.90;99.90
563;DHT22;266;49.514;8.294;2023-03-01T06:02:56;-0.90;99.90
563;DHT22;266;49.514;8.294;2023-03-01T06:05:24;-0.90;99.90
563;DHT22;266;49.514;8.294;2023-03-01T06:07:53;-0.90;99.90
563;DHT22;266;49.514;8.294;2023-03-01T06:10:22;-0.80;99.90
563;DHT22;266;49.514;8.294;2023-03-01T06:12:51;-0.80;99.90
563;DHT22;266;49.514;8.294;2023-03-01T06:15:20;-0.80;99.90
563;DHT22;266;49.514;8.294;2023-03-01T06:17:48;-0.80;99.90
563;DHT22;266;49.514;8.294;2023-03-01T06:20:19;-0.80;99.90
563;DHT22;266;49.514;8.294;2023-03-01T06:22:48;-0.70;99.90
563;DHT22;266;49.514;8.294;2023-03-01T06:25:19;-0.70;99.90
563;DHT22;266;49.514;8.294;2023-03-01T06:27:48;-0.60;99.90
563;DHT22;266;49.514;8.294;2023-03-01T06:30:20;-0.60;99.90
563;DHT22;266;49.514;8.294;2023-03-01T06:32:49;-0.60;99.90
563;DHT22;266;49.514;8.294;2023-03-01T06:35:18;-0.60;99.90
563;DHT22;266;49.514;8.294;2023-03-01T06:37:47;-0.50;99.90
563;DHT22;266;49.514;8.294;2023-03-01T06:40:16;-0.40;99.90
563;DHT22;266;49.514;8.294;2023-03-01T06:42:49;-0.30;99.90
563;DHT22;266;49.514;8.294;2023-03-01T06:45:20;-0.30;99.90
563;DHT22;266;49.514;8.294;2023-03-01T06:47:48;-0.20;99.90
563;DHT22;266;49.514;8.294;2023-03-01T06:50:17;-0.10;99.90
563;DHT22;266;49.514;8.294;2023-03-01T06:52:45;-0.10;99.90
563;DHT22;266;49.514;8.294;2023-03-01T06:55:14;0.00;99.90
563;DHT22;266;49.514;8.294;2023-03-01T06:57:41;0.10;99.90
563;DHT22;266;49.514;8.294;2023-03-01T07:00:10;0.20;99.90
563;DHT22;266;49.514;8.294;2023-03-01T07:02:40;0.30;99.90
563;DHT22;266;49.514;8.294;2023-03-01T07:05:08;0.30;99.90
563;DHT22;266;49.514;8.294;2023-03-01T07:07:36;0.40;99.90
563;DHT22;266;49.514;8.294;2023-03-01T07:10:05;0.50;99.90
563;DHT22;266;49.514;8.294;2023-03-01T07:12:33;0.70;99.90
563;DHT22;266;49.514;8.294;2023-03-01T07:15:01;0.80;99.90
563;DHT22;266;49.514;8.294;2023-03-01T07:17:29;0.90;99.90
563;DHT22;266;49.514;8.294;2023-03-01T07:19:59;1.00;99.90
563;DHT22;266;49.514;8.294;2023-03-01T07:22:26;1.20;99.90
563;DHT22;266;49.514;8.294;2023-03-01T07:24:54;1.30;99.90
563;DHT22;266;49.514;8.294;2023-03-01T07:27:22;1.50;99.90
563;DHT22;266;49.514;8.294;2023-03-01T07:29:50;1.70;99.90
563;DHT22;266;49.514;8.294;2023-03-01T07:32:18;1.90;99.90
563;DHT22;266;49.514;8.294;2023-03-01T07:34:46;2.30;99.90
563;DHT22;266;49.514;8.294;2023-03-01T07:37:15;2.60;99.90
563;DHT22;266;49.514;8.294;2023-03-01T07:39:43;3.00;99.90
563;DHT22;266;49.514;8.294;2023-03-01T07:42:11;3.40;99.90
563;DHT22;266;49.514;8.294;2023-03-01T07:44:39;3.60;99.90
563;DHT22;266;49.514;8.294;2023-03-01T07:47:07;3.70;99.90
563;DHT22;266;49.514;8.294;2023-03-01T07:49:35;3.80;99.90
563;DHT22;266;49.514;8.294;2023-03-01T07:52:03;4.10;99.90
563;DHT22;266;49.514;8.294;2023-03-01T07:54:32;4.10;99.90
563;DHT22;266;49.514;8.294;2023-03-01T07:57:00;4.30;99.90
563;DHT22;266;49.514;8.294;2023-03-01T07:59:28;4.50;99.90
563;DHT22;266;49.514;8.294;2023-03-01T08:01:57;4.70;99.90
563;DHT22;266;49.514;8.294;2023-03-01T08:04:25;5.00;99.90
563;DHT22;266;49.514;8.294;2023-03-01T08:06:53;5.20;99.90
563;DHT22;266;49.514;8.294;2023-03-01T08:09:21;5.40;99.90
563;DHT22;266;49.514;8.294;2023-03-01T08:11:51;5.60;99.90
563;DHT22;266;49.514;8.294;2023-03-01T08:14:19;5.70;99.90
563;DHT22;266;49.514;8.294;2023-03-01T08:16:49;5.80;99.90
563;DHT22;266;49.514;8.294;2023-03-01T08:19:17;5.60;99.90
563;DHT22;266;49.514;8.294;2023-03-01T08:21:45;5.80;99.90
563;DHT22;266;49.514;8.294;2023-03-01T08:24:13;6.00;99.90
563;DHT22;266;49.514;8.294;2023-03-01T08:26:41;6.00;99.90
563;DHT22;266;49.514;8.294;2023-03-01T08:29:10;5.70;99.90
563;DHT22;266;49.514;8.294;2023-03-01T08:31:39;5.80;99.90
563;DHT22;266;49.514;8.294;2023-03-01T08:34:10;6.30;99.90
563;DHT22;266;49.514;8.294;2023-03-01T08:36:40;6.80;99.90
563;DHT22;266;49.514;8.294;2023-03-01T08:39:10;6.70;99.90
563;DHT22;266;49.514;8.294;2023-03-01T08:41:39;6.70;99.90
563;DHT22;266;49.514;8.294;2023-03-01T08:44:07;6.70;99.90
563;DHT22;266;49.514;8.294;2023-03-01T08:46:41;6.60;99.90
563;DHT22;266;49.514;8.294;2023-03-01T08:49:12;6.70;99.90
563;DHT22;266;49.514;8.294;2023-03-01T08:51:40;6.60;99.90
563;DHT22;266;49.514;8.294;2023-03-01T08:54:11;6.80;99.90
563;DHT22;266;49.514;8.294;2023-03-01T08:56:39;6.80;99.90
563;DHT22;266;49.514;8.294;2023-03-01T08:59:07;6.90;99.90
563;DHT22;266;49.514;8.294;2023-03-01T09:01:36;7.10;99.90
563;DHT22;266;49.514;8.294;2023-03-01T09:04:04;7.10;99.90
563;DHT22;266;49.514;8.294;2023-03-01T09:06:33;7.40;99.90
563;DHT22;266;49.514;8.294;2023-03-01T09:09:02;7.60;99.90
563;DHT22;266;49.514;8.294;2023-03-01T09:11:31;7.70;99.90
563;DHT22;266;49.514;8.294;2023-03-01T09:13:59;7.60;99.90
563;DHT22;266;49.514;8.294;2023-03-01T09:16:27;7.80;99.90
563;DHT22;266;49.514;8.294;2023-03-01T09:18:58;7.60;99.90
563;DHT22;266;49.514;8.294;2023-03-01T09:21:26;7.80;99.90
563;DHT22;266;49.514;8.294;2023-03-01T09:24:06;7.80;99.90
563;DHT22;266;49.514;8.294;2023-03-01T09:26:34;7.90;99.90
563;DHT22;266;49.514;8.294;2023-03-01T09:29:02;8.30;99.90
563;DHT22;266;49.514;8.294;2023-03-01T09:31:30;8.30;99.90
563;DHT22;266;49.514;8.294;2023-03-01T09:33:59;8.40;99.90
563;DHT22;266;49.514;8.294;2023-03-01T09:36:27;8.20;99.90
563;DHT22;266;49.514;8.294;2023-03-01T09:38:57;8.50;99.90
563;DHT22;266;49.514;8.294;2023-03-01T09:41:43;8.40;99.90
563;DHT22;266;49.514;8.294;2023-03-01T09:44:21;8.10;99.90
563;DHT22;266;49.514;8.294;2023-03-01T09:46:51;8.20;99.90
563;DHT22;266;49.514;8.294;2023-03-01T09:49:23;8.10;99.90
563;DHT22;266;49.514;8.294;2023-03-01T09:51:59;7.70;99.90
563;DHT22;266;49.514;8.294;2023-03-01T09:54:27;7.50;99.90
563;DHT22;266;49.514;8.294;2023-03-01T09:57:15;7.60;99.90
563;DHT22;266;49.514;8.294;2023-03-01T09:59:55;7.40;99.90
563;DHT22;266;49.514;8.294;2023-03-01T10:02:30;7.50;99.90
563;DHT22;266;49.514;8.294;2023-03-01T10:05:09;7.50;99.90
563;DHT22;266;49.514;8.294;2023-03-01T10:07:43;7.40;99.90
563;DHT22;266;49.514;8.294;2023-03-01T10:10:27;7.50;99.90
563;DHT22;266;49.514;8.294;2023-03-01T10:12:56;7.70;99.90
563;DHT22;266;49.514;8.294;2023-03-01T10:15:33;7.60;99.90
563;DHT22;266;49.514;8.294;2023-03-01T10:18:06;7.50;99.90
563;DHT22;266;49.514;8.294;2023-03-01T10:20:44;7.30;99.90
563;DHT22;266;49.514;8.294;2023-03-01T10:23:14;7.00;99.90
563;DHT22;266;49.514;8.294;2023-03-01T10:25:50;7.40;99.90
563;DHT22;266;49.514;8.294;2023-03-01T10:28:27;7.60;99.90
563;DHT22;266;49.514;8.294;2023-03-01T10:30:58;7.50;99.90
563;DHT22;266;49.514;8.294;2023-03-01T10:33:29;7.70;99.90
563;DHT22;266;49.514;8.294;2023-03-01T10:35:59;7.60;99.90
563;DHT22;266;49.514;8.294;2023-03-01T10:38:30;7.30;99.90
563;DHT22;266;49.514;8.294;2023-03-01T10:41:00;7.30;99.90
563;DHT22;266;49.514;8.294;2023-03-01T10:43:43;7.50;99.90
563;DHT22;266;49.514;8.294;2023-03-01T10:46:23;7.50;99.90
563;DHT22;266;49.514;8.294;2023-03-01T10:49:15;7.70;99.90
563;DHT22;266;49.514;8.294;2023-03-01T10:51:46;7.80;99.90
563;DHT22;266;49.514;8.294;2023-03-01T10:54:17;8.00;99.90
563;DHT22;266;49.514;8.294;2023-03-01T10:56:47;8.10;99.90
563;DHT22;266;49.514;8.294;2023-03-01T10:59:24;7.90;99.90
563;DHT22;266;49.514;8.294;2023-03-01T11:02:14;7.90;99.90
563;DHT22;266;49.514;8.294;2023-03-01T11:05:00;8.00;99.90
563;DHT22;266;49.514;8.294;2023-03-01T11:07:29;8.00;99.90
563;DHT22;266;49.514;8.294;2023-03-01T11:09:57;8.00;99.90
563;DHT22;266;49.514;8.294;2023-03-01T11:12:25;8.30;99.90
563;DHT22;266;49.514;8.294;2023-03-01T11:14:57;8.40;99.90
563;DHT22;266;49.514;8.294;2023-03-01T11:17:27;8.40;99.90
563;DHT22;266;49.514;8.294;2023-03-01T11:20:05;8.50;99.90
563;DHT22;266;49.514;8.294;2023-03-01T11:22:35;8.60;99.90
563;DHT22;266;49.514;8.294;2023-03-01T11:25:04;8.70;99.90
563;DHT22;266;49.514;8.294;2023-03-01T11:27:39;8.70;99.90
563;DHT22;266;49.514;8.294;2023-03-01T11:30:18;9.00;99.90
563;DHT22;266;49.514;8.294;2023-03-01T11:32:54;8.90;99.90
563;DHT22;266;49.514;8.294;2023-03-01T11:35:27;8.80;99.90
563;DHT22;266;49.514;8.294;2023-03-01T11:38:05;8.70;99.90
563;DHT22;266;49.514;8.294;2023-03-01T11:40:40;8.70;99.90
563;DHT22;266;49.514;8.294;2023-03-01T11:43:15;8.80;99.90
563;DHT22;266;49.514;8.294;2023-03-01T11:45:55;8.90;99.90
563;DHT22;266;49.514;8.294;2023-03-01T11:48:46;9.10;99.90
563;DHT22;266;49.514;8.294;2023-03-01T11:51:23;9.20;99.90
563;DHT22;266;49.514;8.294;2023-03-01T11:54:12;9.40;99.90
563;DHT22;266;49.514;8.294;2023-03-01T11:56:46;9.40;99.90
563;DHT22;266;49.514;8.294;2023-03-01T11:59:44;9.40;99.90
563;DHT22;266;49.514;8.294;2023-03-01T12:02:36;9.40;99.90
563;DHT22;266;49.514;8.294;2023-03-01T12:05:20;9.70;99.90
563;DHT22;266;49.514;8.294;2023-03-01T12:07:54;9.80;99.90
563;DHT22;266;49.514;8.294;2023-03-01T12:10:28;10.00;99.90
563;DHT22;266;49.514;8.294;2023-03-01T12:13:20;10.10;99.90
563;DHT22;266;49.514;8.294;2023-03-01T12:16:07;10.30;99.90
563;DHT22;266;49.514;8.294;2023-03-01T12:18:57;10.30;99.90
563;DHT22;266;49.514;8.294;2023-03-01T12:21:42;10.70;99.90
563;DHT22;266;49.514;8.294;2023-03-01T12:24:43;10.70;99.90
563;DHT22;266;49.514;8.294;2023-03-01T12:27:35;10.90;99.90
563;DHT22;266;49.514;8.294;2023-03-01T12:30:18;10.90;99.90
563;DHT22;266;49.514;8.294;2023-03-01T12:32:57;10.70;99.90
563;DHT22;266;49.514;8.294;2023-03-01T12:35:37;10.60;99.90
563;DHT22;266;49.514;8.294;2023-03-01T12:38:22;10.70;99.90
563;DHT22;266;49.514;8.294;2023-03-01T12:44:01;10.80;99.90
563;DHT22;266;49.514;8.294;2023-03-01T12:46:47;10.80;99.90
563;DHT22;266;49.514;8.294;2023-03-01T12:49:22;11.00;99.90
563;DHT22;266;49.514;8.294;2023-03-01T12:51:55;11.10;99.90
563;DHT22;266;49.514;8.294;2023-03-01T12:54:28;11.20;99.90
563;DHT22;266;49.514;8.294;2023-03-01T12:57:02;11.10;99.90
563;DHT22;266;49.514;8.294;2023-03-01T12:59:37;11.20;99.90
563;DHT22;266;49.514;8.294;2023-03-01T13:02:14;10.90;99.90
563;DHT22;266;49.514;8.294;2023-03-01T13:04:55;11.00;99.90
563;DHT22;266;49.514;8.294;2023-03-01T13:07:31;10.90;99.90
563;DHT22;266;49.514;8.294;2023-03-01T13:10:16;11.10;99.90
563;DHT22;266;49.514;8.294;2023-03-01T13:12:51;11.10;99.90
563;DHT22;266;49.514;8.294;2023-03-01T13:15:31;11.10;99.90
563;DHT22;266;49.514;8.294;2023-03-01T13:18:02;11.20;99.90
563;DHT22;266;49.514;8.294;2023-03-01T13:20:34;11.30;99.90
563;DHT22;266;49.514;8.294;2023-03-01T13:23:09;11.30;99.90
563;DHT22;266;49.514;8.294;2023-03-01T13:26:00;11.10;99.90
563;DHT22;266;49.514;8.294;2023-03-01T13:28:53;11.00;99.90
563;DHT22;266;49.514;8.294;2023-03-01T13:31:57;11.00;99.90
563;DHT22;266;49.514;8.294;2023-03-01T13:34:58;10.90;99.90
563;DHT22;266;49.514;8.294;2023-03-01T13:37:32;11.40;99.90
563;DHT22;266;49.514;8.294;2023-03-01T13:40:56;11.60;99.90
563;DHT22;266;49.514;8.294;2023-03-01T13:42:54;11.60;99.90
563;DHT22;266;49.514;8.294;2023-03-01T13:45:36;11.70;99.90
563;DHT22;266;49.514;8.294;2023-03-01T13:48:14;11.50;99.90
563;DHT22;266;49.514;8.294;2023-03-01T13:50:47;11.40;99.90
563;DHT22;266;49.514;8.294;2023-03-01T13:53:20;11.30;99.90
563;DHT22;266;49.514;8.294;2023-03-01T13:55:55;11.20;99.90
563;DHT22;266;49.514;8.294;2023-03-01T13:58:28;11.50;99.90
563;DHT22;266;49.514;8.294;2023-03-01T14:00:59;11.60;99.90
563;DHT22;266;49.514;8.294;2023-03-01T14:03:30;11.60;99.90
563;DHT22;266;49.514;8.294;2023-03-01T14:06:02;11.50;99.90
563;DHT22;266;49.514;8.294;2023-03-01T14:08:43;11.30;99.90
563;DHT22;266;49.514;8.294;2023-03-01T14:11:43;11.20;99.90
563;DHT22;266;49.514;8.294;2023-03-01T14:14:34;11.00;99.90
563;DHT22;266;49.514;8.294;2023-03-01T14:17:20;11.10;99.90
563;DHT22;266;49.514;8.294;2023-03-01T14:19:57;11.30;99.90
563;DHT22;266;49.514;8.294;2023-03-01T14:22:28;11.20;99.90
563;DHT22;266;49.514;8.294;2023-03-01T14:24:58;11.00;99.90
563;DHT22;266;49.514;8.294;2023-03-01T14:27:36;10.80;99.90
563;DHT22;266;49.514;8.294;2023-03-01T14:30:13;10.80;99.90
563;DHT22;266;49.514;8.294;2023-03-01T14:32:42;10.80;99.90
563;DHT22;266;49.514;8.294;2023-03-01T14:35:22;10.60;99.90
563;DHT22;266;49.514;8.294;2023-03-01T14:37:50;10.50;99.90
563;DHT22;266;49.514;8.294;2023-03-01T14:40:23;10.50;99.90
563;DHT22;266;49.514;8.294;2023-03-01T14:42:53;10.50;99.90
563;DHT22;266;49.514;8.294;2023-03-01T14:45:25;10.40;99.90
563;DHT22;266;49.514;8.294;2023-03-01T14:47:53;10.40;99.90
563;DHT22;266;49.514;8.294;2023-03-01T14:50:26;10.40;99.90
563;DHT22;266;49.514;8.294;2023-03-01T14:52:57;10.40;99.90
563;DHT22;266;49.514;8.294;2023-03-01T14:55:28;10.30;99.90
563;DHT22;266;49.514;8.294;2023-03-01T14:57:57;10.20;99.90
563;DHT22;266;49.514;8.294;2023-03-01T15:00:30;10.30;99.90
563;DHT22;266;49.514;8.294;2023-03-01T15:03:04;10.30;99.90
563;DHT22;266;49.514;8.294;2023-03-01T15:05:39;10.20;99.90
563;DHT22;266;49.514;8.294;2023-03-01T15:08:08;10.10;99.90
563;DHT22;266;49.514;8.294;2023-03-01T15:10:56;10.20;99.90
563;DHT22;266;49.514;8.294;2023-03-01T15:13:26;10.20;99.90
563;DHT22;266;49.514;8.294;2023-03-01T15:16:05;10.20;99.90
563;DHT22;266;49.514;8.294;2023-03-01T15:18:34;9.90;99.90
563;DHT22;266;49.514;8.294;2023-03-01T15:21:14;9.80;99.90
563;DHT22;266;49.514;8.294;2023-03-01T15:23:48;9.80;99.90
563;DHT22;266;49.514;8.294;2023-03-01T15:26:24;9.60;99.90
563;DHT22;266;49.514;8.294;2023-03-01T15:28:54;9.50;99.90
563;DHT22;266;49.514;8.294;2023-03-01T15:31:26;9.50;99.90
563;DHT22;266;49.514;8.294;2023-03-01T15:34:09;9.50;99.90
563;DHT22;266;49.514;8.294;2023-03-01T15:36:42;9.60;99.90
563;DHT22;266;49.514;8.294;2023-03-01T15:39:36;9.60;99.90
563;DHT22;266;49.514;8.294;2023-03-01T15:42:11;9.50;99.90
563;DHT22;266;49.514;8.294;2023-03-01T15:44:40;9.50;99.90
563;DHT22;266;49.514;8.294;2023-03-01T15:47:27;9.50;99.90
563;DHT22;266;49.514;8.294;2023-03-01T15:49:56;9.50;99.90
563;DHT22;266;49.514;8.294;2023-03-01T15:52:29;9.40;99.90
563;DHT22;266;49.514;8.294;2023-03-01T15:55:03;9.40;99.90
563;DHT22;266;49.514;8.294;2023-03-01T15:57:32;9.30;99.90
563;DHT22;266;49.514;8.294;2023-03-01T16:00:00;9.20;99.90
563;DHT22;266;49.514;8.294;2023-03-01T16:02:28;9.10;99.90
563;DHT22;266;49.514;8.294;2023-03-01T16:04:56;8.90;99.90
563;DHT22;266;49.514;8.294;2023-03-01T16:07:24;8.80;99.90
563;DHT22;266;49.514;8.294;2023-03-01T16:09:55;8.70;99.90
563;DHT22;266;49.514;8.294;2023-03-01T16:12:24;8.60;99.90
563;DHT22;266;49.514;8.294;2023-03-01T16:14:51;8.60;99.90
563;DHT22;266;49.514;8.294;2023-03-01T16:17:20;8.50;99.90
563;DHT22;266;49.514;8.294;2023-03-01T16:19:48;8.30;99.90
563;DHT22;266;49.514;8.294;2023-03-01T16:22:16;8.30;99.90
563;DHT22;266;49.514;8.294;2023-03-01T16:24:47;8.20;99.90
563;DHT22;266;49.514;8.294;2023-03-01T16:27:16;8.10;99.90
563;DHT22;266;49.514;8.294;2023-03-01T16:29:47;8.00;99.90
563;DHT22;266;49.514;8.294;2023-03-01T16:32:15;7.80;99.90
563;DHT22;266;49.514;8.294;2023-03-01T16:34:43;7.70;99.90
563;DHT22;266;49.514;8.294;2023-03-01T16:37:11;7.60;99.90
563;DHT22;266;49.514;8.294;2023-03-01T16:39:38;7.60;99.90
563;DHT22;266;49.514;8.294;2023-03-01T16:42:06;7.60;99.90
563;DHT22;266;49.514;8.294;2023-03-01T16:44:36;7.60;99.90
563;DHT22;266;49.514;8.294;2023-03-01T16:47:04;7.50;99.90
563;DHT22;266;49.514;8.294;2023-03-01T16:49:32;7.40;99.90
563;DHT22;266;49.514;8.294;2023-03-01T16:51:59;7.30;99.90
563;DHT22;266;49.514;8.294;2023-03-01T16:54:27;7.30;99.90
563;DHT22;266;49.514;8.294;2023-03-01T16:56:55;7.30;99.90
563;DHT22;266;49.514;8.294;2023-03-01T16:59:24;7.20;99.90
563;DHT22;266;49.514;8.294;2023-03-01T17:01:53;7.20;99.90
563;DHT22;266;49.514;8.294;2023-03-01T17:04:21;7.10;99.90
563;DHT22;266;49.514;8.294;2023-03-01T17:06:49;7.00;99.90
563;DHT22;266;49.514;8.294;2023-03-01T17:09:17;6.90;99.90
563;DHT22;266;49.514;8.294;2023-03-01T17:11:48;6.90;99.90
563;DHT22;266;49.514;8.294;2023-03-01T17:14:16;6.80;99.90
563;DHT22;266;49.514;8.294;2023-03-01T17:16:44;6.70;99.90